Time;durP1;ratioP1;P1;durP2;ratioP2;P2;SDS_P1;SDS_P2;PMS_P1;PMS_P2;Temp;Humidity;BMP_temperature;BMP_pressure;BME280_temperature;BME280_humidity;BME280_pressure;Samples;Min_cycle;Max_cycle;Signal;HPM_P1;HPM_P2
2023/04/04 00:01:28;;;;;;;6.00;2.30;;;17.60;40.40;;;;;;5114575;28;20245;-75
2023/04/04 00:03:56;;;;;;;5.00;2.35;;;17.60;40.40;;;;;;5114509;28;20190;-75
2023/04/04 00:06:23;;;;;;;7.53;2.28;;;17.60;40.50;;;;;;5114268;28;20227;-75
2023/04/04 00:08:50;;;;;;;5.15;2.17;;;17.60;40.50;;;;;;5114449;28;20193;-75
2023/04/04 00:11:20;;;;;;;5.85;2.17;;;17.60;40.50;;;;;;5114689;28;20249;-75
2023/04/04 00:13:48;;;;;;;5.45;2.53;;;17.60;40.50;;;;;;5113773;28;20567;-75
2023/04/04 00:16:15;;;;;;;8.18;2.08;;;17.60;40.50;;;;;;5114197;28;20244;-75
2023/04/04 00:18:42;;;;;;;4.03;1.85;;;17.60;40.50;;;;;;5113882;28;20213;-75
2023/04/04 00:21:09;;;;;;;8.20;2.38;;;17.60;40.50;;;;;;5113922;28;20233;-74
2023/04/04 00:23:36;;;;;;;5.75;2.20;;;17.60;40.60;;;;;;5114071;28;20221;-75
2023/04/04 00:26:03;;;;;;;3.90;1.77;;;17.60;40.60;;;;;;5114272;28;20217;-75
2023/04/04 00:28:31;;;;;;;8.35;2.53;;;17.50;40.50;;;;;;5114024;28;20266;-75
2023/04/04 00:31:00;;;;;;;4.90;2.10;;;17.60;40.60;;;;;;5113698;28;20765;-74
2023/04/04 00:33:27;;;;;;;3.40;2.10;;;17.50;40.50;;;;;;5115645;27;20249;-75
2023/04/04 00:35:54;;;;;;;6.53;2.25;;;17.50;40.50;;;;;;5126238;27;20216;-75
2023/04/04 00:38:22;;;;;;;6.97;2.10;;;17.50;40.60;;;;;;5113729;28;20245;-75
2023/04/04 00:40:50;;;;;;;7.57;2.20;;;17.50;40.60;;;;;;5113456;28;20269;-74
2023/04/04 00:43:18;;;;;;;5.50;1.98;;;17.50;40.70;;;;;;5113763;28;20181;-75
2023/04/04 00:45:47;;;;;;;6.32;2.08;;;17.50;40.70;;;;;;5113658;28;20221;-74
2023/04/04 00:48:15;;;;;;;6.70;2.65;;;17.50;40.70;;;;;;5113644;27;20220;-75
2023/04/04 00:50:42;;;;;;;5.53;2.20;;;17.50;40.70;;;;;;5112043;28;20667;-75
2023/04/04 00:53:09;;;;;;;9.23;2.45;;;17.50;40.70;;;;;;5113575;28;20221;-75
2023/04/04 00:55:38;;;;;;;6.82;2.40;;;17.50;40.70;;;;;;5113520;28;20185;-75
2023/04/04 00:58:06;;;;;;;6.35;2.40;;;17.50;40.70;;;;;;5113302;28;20195;-75
2023/04/04 01:00:34;;;;;;;6.25;2.40;;;17.50;40.80;;;;;;5113041;28;20205;-74
2023/04/04 01:03:06;;;;;;;4.82;2.00;;;17.50;40.80;;;;;;5113061;28;20575;-74
2023/04/04 01:05:33;;;;;;;4.95;2.15;;;17.50;40.80;;;;;;5113013;28;20193;-75
2023/04/04 01:08:01;;;;;;;6.80;2.40;;;17.50;40.80;;;;;;5113401;28;20228;-75
2023/04/04 01:10:30;;;;;;;9.45;2.33;;;17.50;40.80;;;;;;5113356;28;20221;-75
2023/04/04 01:12:57;;;;;;;6.60;2.08;;;17.50;40.90;;;;;;5113435;28;20269;-75
2023/04/04 01:15:24;;;;;;;5.93;2.45;;;17.50;40.90;;;;;;5113169;28;20229;-75
2023/04/04 01:17:55;;;;;;;4.97;2.20;;;17.50;40.90;;;;;;5113500;28;20245;-75
2023/04/04 01:20:26;;;;;;;7.70;2.22;;;17.50;41.30;;;;;;5113052;28;20217;-75
2023/04/04 01:22:55;;;;;;;6.93;2.38;;;17.40;40.80;;;;;;5112513;28;20233;-75
2023/04/04 01:25:30;;;;;;;4.90;2.33;;;17.50;40.90;;;;;;5112932;28;20228;-75
2023/04/04 01:27:58;;;;;;;4.25;1.90;;;17.50;40.90;;;;;;5113097;28;20269;-74
2023/04/04 01:30:27;;;;;;;6.75;2.13;;;17.40;40.80;;;;;;5112986;28;20603;-75
2023/04/04 01:33:01;;;;;;;6.38;2.13;;;17.40;40.80;;;;;;5112873;28;20301;-75
2023/04/04 01:35:35;;;;;;;6.00;2.20;;;17.40;40.80;;;;;;5113024;28;20216;-74
2023/04/04 01:38:15;;;;;;;7.15;2.10;;;17.40;40.90;;;;;;5112997;28;20255;-75
2023/04/04 01:40:48;;;;;;;4.75;2.17;;;17.40;40.80;;;;;;5112289;28;20694;-75
2023/04/04 01:43:15;;;;;;;4.85;2.03;;;17.40;40.90;;;;;;5112536;28;20662;-75
2023/04/04 01:45:43;;;;;;;5.53;2.30;;;17.40;40.90;;;;;;5112489;28;20280;-74
2023/04/04 01:48:11;;;;;;;5.75;2.00;;;17.40;40.90;;;;;;5112915;28;20185;-75
2023/04/04 01:50:38;;;;;;;6.15;2.33;;;17.40;40.90;;;;;;5112480;28;20189;-75
2023/04/04 01:53:05;;;;;;;6.95;2.22;;;17.40;40.90;;;;;;5112387;28;20677;-75
2023/04/04 01:55:32;;;;;;;3.65;2.05;;;17.40;41.00;;;;;;5112484;28;20604;-75
2023/04/04 01:58:00;;;;;;;5.80;2.10;;;17.40;41.00;;;;;;5112965;28;20273;-75
2023/04/04 02:00:27;;;;;;;4.63;2.08;;;17.40;41.00;;;;;;5112323;28;20710;-74
2023/04/04 02:02:55;;;;;;;4.63;2.13;;;17.40;41.00;;;;;;5112435;28;20244;-74
2023/04/04 02:05:22;;;;;;;5.45;2.20;;;17.40;41.00;;;;;;5112662;28;20185;-75
2023/04/04 02:07:50;;;;;;;5.50;2.40;;;17.40;41.00;;;;;;5112554;28;20216;-74
2023/04/04 02:10:17;;;;;;;4.03;2.10;;;17.30;40.90;;;;;;5112372;28;20181;-75
2023/04/04 02:12:44;;;;;;;5.38;2.35;;;17.30;40.90;;;;;;5112684;28;20252;-75
2023/04/04 02:15:13;;;;;;;4.60;2.28;;;17.30;40.90;;;;;;5112489;28;20246;-75
2023/04/04 02:17:41;;;;;;;4.40;2.28;;;17.40;41.00;;;;;;5112763;28;20285;-74
2023/04/04 02:20:09;;;;;;;7.25;2.33;;;17.30;41.00;;;;;;5112470;28;20217;-74
2023/04/04 02:22:36;;;;;;;5.63;2.33;;;17.30;41.00;;;;;;5112124;28;20237;-74
2023/04/04 02:25:04;;;;;;;5.55;2.20;;;17.30;41.00;;;;;;5112769;28;20228;-72
2023/04/04 02:27:31;;;;;;;6.88;2.42;;;17.30;41.00;;;;;;5112050;28;20635;-75
2023/04/04 02:29:58;;;;;;;8.63;2.10;;;17.30;41.00;;;;;;5112482;28;20220;-74
2023/04/04 02:32:27;;;;;;;6.18;2.10;;;17.30;41.00;;;;;;5112119;28;20217;-75
2023/04/04 02:34:53;;;;;;;9.32;2.35;;;17.30;41.00;;;;;;5112246;28;20236;-74
2023/04/04 02:37:21;;;;;;;4.22;1.80;;;17.30;41.10;;;;;;5113674;28;20251;-75
2023/04/04 02:39:48;;;;;;;7.50;2.05;;;17.30;41.10;;;;;;5116130;28;20217;-75
2023/04/04 02:42:15;;;;;;;7.55;2.22;;;17.30;41.10;;;;;;5116245;28;20248;-72
2023/04/04 02:44:42;;;;;;;7.47;2.20;;;17.30;41.10;;;;;;5116072;28;20216;-74
2023/04/04 02:47:09;;;;;;;5.18;2.05;;;17.30;41.10;;;;;;5115870;28;20213;-75
2023/04/04 02:49:38;;;;;;;4.95;2.00;;;17.30;41.10;;;;;;5116043;28;20273;-75
2023/04/04 02:52:06;;;;;;;5.43;2.03;;;17.30;41.10;;;;;;5115960;28;20285;-75
2023/04/04 02:54:34;;;;;;;6.30;2.30;;;17.30;41.10;;;;;;5116016;28;20185;-74
2023/04/04 02:57:01;;;;;;;4.93;2.20;;;17.30;41.10;;;;;;5115997;28;20249;-75
2023/04/04 02:59:28;;;;;;;6.22;2.42;;;17.30;41.10;;;;;;5115742;28;20243;-75
2023/04/04 03:01:55;;;;;;;7.85;2.67;;;17.30;41.20;;;;;;5114481;28;20210;-74
2023/04/04 03:04:22;;;;;;;5.75;2.40;;;17.30;41.10;;;;;;5115740;28;20228;-74
2023/04/04 03:06:51;;;;;;;6.85;2.45;;;17.30;41.10;;;;;;5115817;28;20259;-75
2023/04/04 03:09:18;;;;;;;2.95;1.73;;;17.30;41.10;;;;;;5115328;28;20193;-75
2023/04/04 03:11:45;;;;;;;5.90;2.10;;;17.30;41.10;;;;;;5115566;28;20219;-75
2023/04/04 03:14:12;;;;;;;4.15;1.80;;;17.30;41.10;;;;;;5115606;28;20541;-75
2023/04/04 03:16:39;;;;;;;5.40;2.33;;;17.30;41.20;;;;;;5115153;28;20239;-75
2023/04/04 03:19:06;;;;;;;6.43;2.38;;;17.30;41.20;;;;;;5115398;28;20251;-75
2023/04/04 03:21:33;;;;;;;6.07;2.10;;;17.20;41.10;;;;;;5115054;28;20311;-75
2023/04/04 03:24:02;;;;;;;3.65;1.80;;;17.20;41.00;;;;;;5115699;28;20232;-75
2023/04/04 03:26:29;;;;;;;7.85;2.30;;;17.30;41.10;;;;;;5115357;28;20334;-74
2023/04/04 03:28:56;;;;;;;8.68;2.50;;;17.20;41.00;;;;;;5115035;28;20225;-75
2023/04/04 03:31:23;;;;;;;4.60;2.08;;;17.20;41.00;;;;;;5115098;28;20362;-74
2023/04/04 03:33:50;;;;;;;5.00;2.53;;;17.20;41.00;;;;;;5115119;28;20221;-75
2023/04/04 03:36:17;;;;;;;4.47;1.95;;;17.20;41.00;;;;;;5114821;28;20698;-74
2023/04/04 03:38:45;;;;;;;5.32;2.17;;;17.20;41.00;;;;;;5114750;28;20185;-75
2023/04/04 03:41:13;;;;;;;6.20;2.13;;;17.20;41.00;;;;;;5114627;28;20217;-75
2023/04/04 03:43:40;;;;;;;5.80;2.25;;;17.20;41.00;;;;;;5115008;28;20217;-74
2023/04/04 03:46:07;;;;;;;3.83;1.65;;;17.20;41.00;;;;;;5114796;28;20223;-75
2023/04/04 03:48:34;;;;;;;4.53;2.15;;;17.20;41.00;;;;;;5113980;28;20725;-75
2023/04/04 03:51:03;;;;;;;4.25;2.38;;;17.20;41.00;;;;;;5114418;28;20654;-75
2023/04/04 03:53:30;;;;;;;4.10;2.10;;;17.20;41.00;;;;;;5114742;28;20185;-75
2023/04/04 03:55:58;;;;;;;3.35;2.20;;;17.20;41.00;;;;;;5114450;28;20185;-75
2023/04/04 03:58:29;;;;;;;5.43;1.95;;;17.20;41.00;;;;;;5114938;28;20196;-74
2023/04/04 04:00:56;;;;;;;5.25;2.15;;;17.20;41.00;;;;;;5114644;28;20213;-75
2023/04/04 04:03:23;;;;;;;6.70;2.00;;;17.20;41.00;;;;;;5114545;28;20626;-74
2023/04/04 04:05:50;;;;;;;5.78;2.25;;;17.20;40.90;;;;;;5114298;28;20651;-75
2023/04/04 04:08:17;;;;;;;6.22;2.58;;;17.10;40.80;;;;;;5114741;28;20249;-75
2023/04/04 04:10:44;;;;;;;4.28;2.03;;;17.10;40.80;;;;;;5114711;28;20197;-75
2023/04/04 04:13:11;;;;;;;3.13;2.00;;;17.10;40.80;;;;;;5114297;28;20220;-75
2023/04/04 04:15:40;;;;;;;3.97;1.90;;;17.10;40.80;;;;;;5114266;28;20220;-75
2023/04/04 04:18:07;;;;;;;3.00;2.10;;;17.10;40.80;;;;;;5114587;28;20252;-74
2023/04/04 04:20:35;;;;;;;3.40;1.88;;;17.10;40.80;;;;;;5114170;28;20257;-75
2023/04/04 04:23:02;;;;;;;5.43;2.20;;;17.20;40.80;;;;;;5113893;28;20301;-75
2023/04/04 04:25:29;;;;;;;3.03;1.90;;;17.10;40.70;;;;;;5114393;28;20242;-75
2023/04/04 04:27:56;;;;;;;3.10;2.10;;;17.10;40.70;;;;;;5113693;28;20234;-75
2023/04/04 04:30:23;;;;;;;5.72;2.13;;;17.10;40.70;;;;;;5113761;28;20665;-75
2023/04/04 04:32:52;;;;;;;4.88;2.13;;;17.10;40.70;;;;;;5114072;28;20244;-75
2023/04/04 04:35:19;;;;;;;5.10;1.90;;;17.10;40.60;;;;;;5113980;28;20228;-75
2023/04/04 04:37:46;;;;;;;4.40;1.92;;;17.10;40.60;;;;;;5113602;28;20729;-74
2023/04/04 04:40:15;;;;;;;7.03;2.17;;;17.10;40.60;;;;;;5113780;28;20209;-74
2023/04/04 04:42:45;;;;;;;3.50;1.70;;;17.10;40.60;;;;;;5113930;28;20249;-75
2023/04/04 04:45:12;;;;;;;3.85;1.88;;;17.10;40.60;;;;;;5113726;28;20619;-75
2023/04/04 04:47:39;;;;;;;3.55;2.10;;;17.10;40.60;;;;;;5113867;28;20217;-74
2023/04/04 04:50:10;;;;;;;4.70;2.08;;;17.10;40.60;;;;;;5113637;28;20228;-74
2023/04/04 04:52:38;;;;;;;3.97;1.90;;;17.20;40.60;;;;;;5113691;28;20627;-75
2023/04/04 04:55:06;;;;;;;4.53;1.90;;;17.20;40.60;;;;;;5113593;28;20225;-75
2023/04/04 04:57:34;;;;;;;3.97;1.80;;;17.20;40.60;;;;;;5112452;28;20229;-75
2023/04/04 05:00:03;;;;;;;3.08;2.03;;;17.20;40.50;;;;;;5112765;28;20235;-75
2023/04/04 05:02:30;;;;;;;4.47;1.83;;;17.30;40.50;;;;;;5112996;28;20224;-74
2023/04/04 05:04:57;;;;;;;3.97;2.03;;;17.30;40.50;;;;;;5113508;28;20190;-75
2023/04/04 05:07:27;;;;;;;5.07;2.00;;;17.30;40.50;;;;;;5113431;28;20245;-75
2023/04/04 05:09:54;;;;;;;4.05;2.13;;;17.30;40.50;;;;;;5113344;28;20265;-75
2023/04/04 05:12:21;;;;;;;2.75;1.52;;;17.40;40.50;;;;;;5113390;28;20266;-75
2023/04/04 05:14:48;;;;;;;3.92;2.10;;;17.40;40.50;;;;;;5113166;28;20224;-75
2023/04/04 05:17:15;;;;;;;2.50;1.83;;;17.50;40.50;;;;;;5113046;28;20217;-75
2023/04/04 05:19:42;;;;;;;2.95;1.90;;;17.50;40.50;;;;;;5112767;28;20694;-75
2023/04/04 05:22:09;;;;;;;5.60;1.90;;;17.50;40.50;;;;;;5112847;28;20233;-75
2023/04/04 05:24:38;;;;;;;4.30;2.08;;;17.60;40.50;;;;;;5113434;28;20232;-75
2023/04/04 05:27:05;;;;;;;5.60;1.85;;;17.60;40.50;;;;;;5112899;28;20219;-75
2023/04/04 05:29:32;;;;;;;3.20;1.70;;;17.60;40.50;;;;;;5112775;28;20662;-74
2023/04/04 05:31:59;;;;;;;4.63;2.03;;;17.60;40.40;;;;;;5112873;28;20213;-74
2023/04/04 05:34:27;;;;;;;3.47;1.88;;;17.60;40.40;;;;;;5113013;28;20229;-75
2023/04/04 05:36:54;;;;;;;2.60;1.90;;;17.70;40.50;;;;;;5112704;28;20722;-75
2023/04/04 05:39:21;;;;;;;3.80;1.90;;;17.70;41.10;;;;;;5112549;28;20221;-75
2023/04/04 05:41:49;;;;;;;3.45;1.55;;;17.80;40.60;;;;;;5112760;28;20260;-75
2023/04/04 05:44:16;;;;;;;2.25;1.52;;;17.80;40.50;;;;;;5112851;28;20189;-75
2023/04/04 05:46:43;;;;;;;3.55;1.85;;;17.80;40.50;;;;;;5112863;28;20251;-75
2023/04/04 05:49:10;;;;;;;3.40;1.83;;;17.80;40.50;;;;;;5112822;28;20235;-75
2023/04/04 05:51:37;;;;;;;2.05;1.70;;;17.90;40.60;;;;;;5112707;28;20272;-75
2023/04/04 05:54:06;;;;;;;3.08;1.67;;;17.90;40.60;;;;;;5112808;28;20267;-75
2023/04/04 05:56:33;;;;;;;3.47;1.90;;;17.90;40.60;;;;;;5112750;28;20256;-75
2023/04/04 05:59:02;;;;;;;3.70;1.85;;;17.90;40.60;;;;;;5112624;28;20217;-75
2023/04/04 06:01:29;;;;;;;3.15;1.92;;;17.90;40.50;;;;;;5112454;28;20235;-73
2023/04/04 06:03:56;;;;;;;1.88;1.67;;;17.90;40.50;;;;;;5112629;28;20258;-75
2023/04/04 06:06:24;;;;;;;2.35;1.55;;;17.90;40.50;;;;;;5112709;28;20212;-75
2023/04/04 06:08:51;;;;;;;3.53;1.65;;;18.00;40.50;;;;;;5112309;28;20221;-75
2023/04/04 06:11:18;;;;;;;2.88;1.70;;;18.00;40.50;;;;;;5112550;28;20213;-75
2023/04/04 06:13:45;;;;;;;3.50;2.10;;;18.00;40.40;;;;;;5116445;28;20185;-75
2023/04/04 06:16:13;;;;;;;5.18;2.03;;;18.00;40.40;;;;;;5116657;28;20228;-75
2023/04/04 06:18:41;;;;;;;4.35;2.20;;;18.10;40.50;;;;;;5116862;28;20212;-75
2023/04/04 06:21:08;;;;;;;2.50;2.10;;;18.10;40.40;;;;;;5116174;28;20264;-75
2023/04/04 06:23:36;;;;;;;4.45;2.25;;;18.10;40.30;;;;;;5116726;28;20272;-75
2023/04/04 06:26:03;;;;;;;2.35;1.83;;;18.10;40.30;;;;;;5116696;28;20250;-75
2023/04/04 06:28:30;;;;;;;2.53;1.95;;;18.10;40.30;;;;;;5116625;27;20220;-75
2023/04/04 06:30:57;;;;;;;3.78;2.22;;;18.10;40.20;;;;;;5116389;28;20216;-75
2023/04/04 06:33:27;;;;;;;3.15;2.10;;;18.10;40.20;;;;;;5116304;28;20217;-75
2023/04/04 06:35:54;;;;;;;3.58;2.10;;;18.20;40.30;;;;;;5116158;27;20716;-75
2023/04/04 06:38:21;;;;;;;3.35;2.10;;;18.20;40.20;;;;;;5116380;28;20217;-75
2023/04/04 06:40:48;;;;;;;4.80;1.95;;;18.20;40.20;;;;;;5118116;27;20251;-75
2023/04/04 06:43:15;;;;;;;3.88;2.05;;;18.20;40.20;;;;;;5076793;22;20254;-74
2023/04/04 06:45:42;;;;;;;3.38;1.90;;;18.20;40.20;;;;;;5038222;28;20240;-73
2023/04/04 06:48:08;;;;;;;6.10;2.42;;;18.20;40.20;;;;;;5023789;28;20260;-74
2023/04/04 06:50:37;;;;;;;3.88;2.08;;;18.30;40.20;;;;;;5015456;28;20248;-75
2023/04/04 06:53:05;;;;;;;3.08;1.90;;;18.30;40.00;;;;;;5016354;28;20260;-74
2023/04/04 06:55:33;;;;;;;4.55;1.90;;;18.30;40.00;;;;;;5020542;28;20632;-74
2023/04/04 06:58:00;;;;;;;4.18;2.17;;;18.30;39.90;;;;;;5018665;28;20258;-74
2023/04/04 07:00:27;;;;;;;4.05;2.08;;;18.30;39.70;;;;;;5030736;28;20662;-74
2023/04/04 07:02:59;;;;;;;3.92;2.03;;;18.30;39.70;;;;;;5024331;28;20335;-74
2023/04/04 07:05:26;;;;;;;3.28;1.95;;;18.40;39.70;;;;;;5031218;28;20288;-74
2023/04/04 07:07:55;;;;;;;3.42;2.00;;;18.30;39.50;;;;;;5031501;28;20252;-75
2023/04/04 07:10:23;;;;;;;4.93;2.00;;;18.40;39.50;;;;;;5030082;28;20207;-74
2023/04/04 07:12:51;;;;;;;4.40;1.83;;;18.40;39.60;;;;;;5032473;28;20495;-73
2023/04/04 07:15:18;;;;;;;5.97;2.03;;;18.40;39.60;;;;;;5032075;28;20283;-74
2023/04/04 07:17:45;;;;;;;3.92;2.10;;;18.40;39.50;;;;;;5026148;28;20224;-74
2023/04/04 07:20:12;;;;;;;5.55;1.80;;;18.50;40.10;;;;;;5025917;28;20196;-74
2023/04/04 07:22:40;;;;;;;4.88;2.10;;;18.50;39.50;;;;;;5031486;28;20303;-73
2023/04/04 07:25:09;;;;;;;5.00;1.98;;;18.50;39.40;;;;;;5029166;28;20302;-73
2023/04/04 07:27:36;;;;;;;3.13;2.05;;;18.50;39.40;;;;;;5032171;28;20311;-73
2023/04/04 07:30:05;;;;;;;4.35;1.83;;;18.50;39.40;;;;;;5032478;28;20244;-73
2023/04/04 07:32:32;;;;;;;3.10;1.75;;;18.50;39.30;;;;;;5032221;28;20266;-73
2023/04/04 07:34:59;;;;;;;4.07;1.90;;;18.50;39.30;;;;;;5029780;28;20689;-73
2023/04/04 07:37:26;;;;;;;3.65;2.08;;;18.60;40.10;;;;;;5031747;28;20248;-73
2023/04/04 07:39:53;;;;;;;3.97;1.70;;;18.60;39.30;;;;;;5032490;28;20198;-73
2023/04/04 07:42:22;;;;;;;3.00;1.80;;;18.60;39.30;;;;;;5029154;28;20740;-73
2023/04/04 07:44:50;;;;;;;3.40;1.92;;;18.60;39.30;;;;;;5030851;28;20278;-74
2023/04/04 07:47:17;;;;;;;5.60;1.95;;;18.60;39.30;;;;;;5031070;28;20311;-73
2023/04/04 07:49:45;;;;;;;5.18;2.33;;;18.60;39.30;;;;;;5031921;28;20270;-72
2023/04/04 07:52:12;;;;;;;4.22;2.03;;;18.60;39.20;;;;;;5031999;28;20308;-74
2023/04/04 07:54:40;;;;;;;4.35;2.15;;;18.60;39.20;;;;;;5031411;28;20192;-73
2023/04/04 07:57:08;;;;;;;3.67;1.85;;;18.60;39.10;;;;;;5031675;28;20227;-73
2023/04/04 07:59:37;;;;;;;5.15;1.95;;;18.60;39.20;;;;;;5031725;28;20670;-73
2023/04/04 08:02:04;;;;;;;3.38;2.03;;;18.60;39.20;;;;;;5031391;28;20276;-73
2023/04/04 08:04:31;;;;;;;2.55;1.90;;;18.70;39.20;;;;;;5030771;28;20704;-73
2023/04/04 08:06:58;;;;;;;3.30;2.00;;;18.70;39.10;;;;;;5031411;28;20220;-73
2023/04/04 08:09:27;;;;;;;7.20;2.22;;;18.70;39.10;;;;;;5031138;28;20232;-73
2023/04/04 08:11:54;;;;;;;2.65;1.85;;;18.70;39.70;;;;;;5031597;28;20192;-73
2023/04/04 08:14:21;;;;;;;2.30;1.60;;;18.70;39.10;;;;;;5030966;28;20192;-73
2023/04/04 08:16:50;;;;;;;7.45;2.00;;;18.70;39.00;;;;;;5030518;28;20634;-72
2023/04/04 08:19:17;;;;;;;3.80;1.83;;;18.70;39.10;;;;;;5031978;28;20196;-73
2023/04/04 08:21:45;;;;;;;4.82;2.10;;;18.70;39.20;;;;;;5031238;28;20301;-74
2023/04/04 08:24:12;;;;;;;3.60;1.98;;;18.70;39.20;;;;;;5030324;28;20231;-73
2023/04/04 08:26:39;;;;;;;3.38;2.03;;;18.70;39.20;;;;;;5031010;28;20197;-72
2023/04/04 08:29:06;;;;;;;3.58;1.85;;;18.70;39.20;;;;;;5030812;28;20285;-72
2023/04/04 08:31:33;;;;;;;2.55;1.70;;;18.70;39.30;;;;;;5031258;28;20307;-73
2023/04/04 08:34:02;;;;;;;3.33;1.80;;;18.80;39.30;;;;;;5029235;28;20220;-72
2023/04/04 08:36:29;;;;;;;2.38;1.70;;;18.70;39.20;;;;;;5030258;28;20243;-73
2023/04/04 08:38:56;;;;;;;7.05;2.38;;;18.80;39.30;;;;;;5030681;28;20223;-73
2023/04/04 08:41:24;;;;;;;4.97;2.20;;;18.80;39.20;;;;;;5022915;28;20231;-73
2023/04/04 08:43:55;;;;;;;3.05;2.05;;;18.80;39.20;;;;;;5022046;28;20263;-72
2023/04/04 08:46:24;;;;;;;3.22;2.00;;;18.80;39.00;;;;;;5025546;28;20197;-72
2023/04/04 08:48:53;;;;;;;5.70;2.20;;;18.70;39.00;;;;;;5023855;28;20220;-72
2023/04/04 08:51:30;;;;;;;4.00;2.13;;;18.80;39.20;;;;;;5024888;28;20224;-73
2023/04/04 08:54:03;;;;;;;3.42;2.13;;;18.80;39.10;;;;;;4988195;28;20288;-73
2023/04/04 08:56:32;;;;;;;4.82;2.13;;;18.80;39.20;;;;;;4988982;28;20313;-72
2023/04/04 08:59:03;;;;;;;2.55;1.90;;;18.80;39.20;;;;;;4986717;28;20261;-73
2023/04/04 09:01:32;;;;;;;7.93;2.00;;;18.80;39.20;;;;;;4987730;28;20225;-73
2023/04/04 09:04:02;;;;;;;3.05;1.73;;;18.80;39.20;;;;;;4987673;28;20225;-72
2023/04/04 09:06:33;;;;;;;2.92;2.10;;;18.80;39.10;;;;;;4973027;28;20305;-73
2023/04/04 09:09:01;;;;;;;4.40;2.40;;;18.90;39.30;;;;;;4972522;28;20221;-73
2023/04/04 09:11:32;;;;;;;3.58;2.00;;;18.80;39.20;;;;;;4989389;28;20190;-72
2023/04/04 09:14:04;;;;;;;3.97;1.88;;;18.80;39.20;;;;;;4988749;28;20237;-73
2023/04/04 09:16:35;;;;;;;3.75;1.88;;;18.80;39.10;;;;;;4988559;28;20190;-73
2023/04/04 09:24:40;;;;;;;5.57;2.00;;;18.90;39.20;;;;;;5001432;28;20203;-72
2023/04/04 09:27:09;;;;;;;4.93;2.05;;;18.90;39.20;;;;;;4962498;28;20286;-73
2023/04/04 09:29:38;;;;;;;6.03;2.15;;;18.90;39.30;;;;;;5031589;28;20184;-72
2023/04/04 09:32:08;;;;;;;4.15;2.00;;;18.90;39.30;;;;;;5024064;28;20196;-73
2023/04/04 09:34:36;;;;;;;8.75;2.05;;;18.90;39.40;;;;;;5017621;28;20193;-73
2023/04/04 09:37:05;;;;;;;3.25;2.17;;;18.90;39.50;;;;;;5021225;28;20617;-73
2023/04/04 09:39:33;;;;;;;7.35;2.40;;;18.90;39.50;;;;;;5026859;28;20244;-73
2023/04/04 09:42:01;;;;;;;8.73;2.33;;;19.00;39.50;;;;;;5029514;28;20238;-73
2023/04/04 09:44:32;;;;;;;3.08;2.20;;;19.00;39.50;;;;;;5031043;28;20251;-74
2023/04/04 09:47:23;;;;;;;7.40;2.33;;;19.00;39.50;;;;;;4976278;28;20208;-74
2023/04/04 09:49:51;;;;;;;5.85;2.60;;;19.00;39.40;;;;;;5026560;28;20242;-72
2023/04/04 09:52:23;;;;;;;8.48;2.75;;;19.00;39.30;;;;;;5031166;28;20235;-72
2023/04/04 09:54:57;;;;;;;4.95;2.40;;;19.00;39.30;;;;;;5030027;28;20200;-74
2023/04/04 09:57:26;;;;;;;4.78;2.33;;;19.10;39.30;;;;;;5048590;28;20225;-73
2023/04/04 09:59:55;;;;;;;3.88;2.25;;;19.00;39.20;;;;;;5030842;28;20220;-72
2023/04/04 10:02:23;;;;;;;4.53;2.40;;;19.10;39.20;;;;;;5039134;28;20630;-72
2023/04/04 10:04:52;;;;;;;6.25;2.00;;;19.10;39.10;;;;;;5049774;28;20251;-73
2023/04/04 10:07:20;;;;;;;4.93;2.50;;;19.10;39.10;;;;;;5050797;28;20223;-72
2023/04/04 10:09:51;;;;;;;4.43;2.40;;;19.10;39.00;;;;;;5050134;28;20211;-73
2023/04/04 10:12:22;;;;;;;9.73;2.45;;;19.10;39.00;;;;;;5050599;28;20187;-72
2023/04/04 10:14:55;;;;;;;9.70;2.30;;;19.10;39.00;;;;;;5050523;28;20215;-72
2023/04/04 10:17:24;;;;;;;4.72;2.13;;;19.10;38.90;;;;;;5050730;28;20191;-72
2023/04/04 10:19:52;;;;;;;6.47;2.40;;;19.10;38.80;;;;;;5039724;28;20219;-70
2023/04/04 10:22:21;;;;;;;10.80;2.60;;;19.10;38.70;;;;;;5039256;28;20302;-72
2023/04/04 10:24:49;;;;;;;3.58;2.25;;;19.10;38.80;;;;;;5038776;28;20250;-74
2023/04/04 10:27:16;;;;;;;3.67;1.92;;;19.10;38.50;;;;;;5038882;28;20192;-71
2023/04/04 10:29:44;;;;;;;5.28;2.35;;;19.20;38.70;;;;;;5038850;28;20266;-73
2023/04/04 10:32:17;;;;;;;7.75;2.50;;;19.20;38.80;;;;;;5037540;28;20205;-72
2023/04/04 10:34:52;;;;;;;4.57;2.45;;;19.20;38.90;;;;;;5036038;28;20235;-72
2023/04/04 10:37:25;;;;;;;4.22;2.20;;;19.20;38.80;;;;;;5036851;28;20720;-72
2023/04/04 10:40:03;;;;;;;5.07;1.85;;;19.20;38.50;;;;;;5037624;28;20314;-72
2023/04/04 10:42:35;;;;;;;6.65;2.30;;;19.20;38.60;;;;;;5036207;28;20327;-72
2023/04/04 10:45:03;;;;;;;7.13;2.50;;;19.20;38.90;;;;;;5024933;28;20268;-73
2023/04/04 10:47:32;;;;;;;7.28;2.40;;;19.30;38.80;;;;;;5030489;28;20188;-73
2023/04/04 10:49:59;;;;;;;5.63;1.92;;;19.30;38.80;;;;;;5034763;28;20220;-72
2023/04/04 10:52:29;;;;;;;3.17;2.10;;;19.20;38.70;;;;;;5034971;28;20195;-73
2023/04/04 10:55:00;;;;;;;6.55;2.35;;;19.20;38.70;;;;;;5030364;28;20255;-71
2023/04/04 10:57:28;;;;;;;4.00;2.20;;;19.20;38.70;;;;;;5032424;28;20312;-73
2023/04/04 11:00:00;;;;;;;5.60;2.00;;;19.20;38.70;;;;;;5034307;28;20229;-73
2023/04/04 11:02:49;;;;;;;4.00;2.40;;;19.20;38.70;;;;;;5037471;28;20248;-72
2023/04/04 11:05:21;;;;;;;4.55;2.17;;;19.20;38.70;;;;;;5037787;28;20246;-72
2023/04/04 11:07:49;;;;;;;5.25;2.20;;;19.20;38.70;;;;;;5040666;28;20253;-73
2023/04/04 11:10:23;;;;;;;3.92;1.90;;;19.20;38.70;;;;;;5017420;28;20220;-72
2023/04/04 11:12:55;;;;;;;3.28;1.88;;;19.20;38.50;;;;;;5031809;28;20191;-72
2023/04/04 11:15:23;;;;;;;3.67;2.13;;;19.20;38.60;;;;;;5024661;28;20190;-74
2023/04/04 11:17:56;;;;;;;4.75;2.90;;;19.20;38.70;;;;;;5011201;28;20232;-72
2023/04/04 11:20:25;;;;;;;22.60;3.17;;;19.20;38.70;;;;;;5030580;28;20258;-73
2023/04/04 11:23:06;;;;;;;44.72;3.63;;;19.20;38.70;;;;;;5016862;28;20703;-73
2023/04/04 11:25:36;;;;;;;46.78;3.55;;;19.20;38.80;;;;;;5031819;28;20235;-73
2023/04/04 11:28:09;;;;;;;26.67;2.75;;;19.20;38.70;;;;;;5023276;28;20224;-74
2023/04/04 11:30:43;;;;;;;12.35;2.15;;;19.30;38.90;;;;;;5018375;28;20322;-73
2023/04/04 11:33:12;;;;;;;17.10;1.90;;;19.30;38.70;;;;;;5006853;28;20189;-73
2023/04/04 11:35:41;;;;;;;14.68;2.15;;;19.20;38.70;;;;;;5033214;28;20235;-74
2023/04/04 11:38:15;;;;;;;5.80;2.03;;;19.30;38.80;;;;;;5043491;28;20191;-73
2023/04/04 11:40:55;;;;;;;8.02;2.10;;;19.20;38.70;;;;;;5036848;28;20192;-73
2023/04/04 11:43:23;;;;;;;8.68;1.95;;;19.30;38.80;;;;;;5033185;28;20326;-73
2023/04/04 11:45:51;;;;;;;5.97;1.80;;;19.20;38.60;;;;;;5033826;28;20247;-74
2023/04/04 11:48:20;;;;;;;8.27;2.40;;;19.30;38.80;;;;;;5033350;28;20643;-73
2023/04/04 11:50:59;;;;;;;11.38;2.10;;;19.20;38.70;;;;;;5033046;28;20200;-73
2023/04/04 11:53:28;;;;;;;5.00;2.40;;;19.20;38.70;;;;;;5033201;28;20280;-73
2023/04/04 11:55:56;;;;;;;4.63;2.30;;;19.30;38.70;;;;;;5016083;28;20773;-73
2023/04/04 11:58:24;;;;;;;4.63;1.77;;;19.30;38.40;;;;;;5032881;28;20211;-73
2023/04/04 12:00:51;;;;;;;6.30;2.20;;;19.20;37.90;;;;;;5041335;28;20247;-73
2023/04/04 12:03:18;;;;;;;2.85;2.00;;;19.30;37.90;;;;;;5042120;28;20259;-74
2023/04/04 12:05:47;;;;;;;6.25;2.35;;;19.30;37.80;;;;;;5041269;28;20710;-75
2023/04/04 12:08:16;;;;;;;9.05;1.80;;;19.30;37.50;;;;;;5037196;28;20200;-72
2023/04/04 12:10:44;;;;;;;7.15;2.00;;;19.30;37.50;;;;;;5041060;28;20258;-74
2023/04/04 12:13:13;;;;;;;2.90;1.90;;;19.30;38.50;;;;;;5034668;28;20266;-75
2023/04/04 12:15:42;;;;;;;3.10;1.83;;;19.30;37.60;;;;;;5041243;28;20235;-73
2023/04/04 12:18:09;;;;;;;5.65;2.00;;;19.30;37.90;;;;;;5040380;28;20251;-74
2023/04/04 12:20:39;;;;;;;4.05;1.80;;;19.40;37.90;;;;;;5038078;28;20670;-73
2023/04/04 12:23:06;;;;;;;6.68;2.20;;;19.40;38.10;;;;;;5040451;28;20241;-72
2023/04/04 12:25:34;;;;;;;7.97;2.05;;;19.40;38.10;;;;;;5041290;28;20281;-71
2023/04/04 12:28:03;;;;;;;4.95;2.20;;;19.40;37.90;;;;;;5040188;28;20277;-71
2023/04/04 12:30:33;;;;;;;5.20;1.60;;;19.40;38.20;;;;;;5038624;28;20257;-72
2023/04/04 12:33:00;;;;;;;2.85;1.70;;;19.40;38.20;;;;;;5040448;28;20255;-72
2023/04/04 12:35:27;;;;;;;5.68;1.63;;;19.40;38.20;;;;;;5040166;28;20196;-73
2023/04/04 12:38:03;;;;;;;5.18;1.80;;;19.40;38.30;;;;;;5035484;28;20313;-74
2023/04/04 12:40:35;;;;;;;4.43;1.75;;;19.40;38.70;;;;;;5038960;28;20703;-75
2023/04/04 12:43:07;;;;;;;5.95;2.00;;;19.40;38.40;;;;;;5039984;28;20326;-76
2023/04/04 12:45:39;;;;;;;4.22;2.10;;;19.50;38.50;;;;;;5035197;28;20212;-73
2023/04/04 12:48:23;;;;;;;6.95;1.70;;;19.50;38.50;;;;;;5038277;28;20250;-72
2023/04/04 12:50:52;;;;;;;6.78;1.92;;;19.50;38.50;;;;;;5039505;28;20416;-73
2023/04/04 12:53:23;;;;;;;2.83;1.60;;;19.50;38.50;;;;;;5037947;28;20262;-72
2023/04/04 12:55:51;;;;;;;3.60;1.65;;;19.50;38.50;;;;;;5044488;28;20231;-71
2023/04/04 12:58:20;;;;;;;5.03;1.70;;;19.50;38.50;;;;;;5037276;28;20238;-73